Time;durP1;ratioP1;P1;durP2;ratioP2;P2;SDS_P1;SDS_P2;PMS_P1;PMS_P2;Temp;Humidity;BMP_temperature;BMP_pressure;BME280_temperature;BME280_humidity;BME280_pressure;Samples;Min_cycle;Max_cycle;Signal;HPM_P1;HPM_P2
2022/01/27 00:02:48;;;;;;;132.70;39.30;;;;;;;2.98;100.00;102761.56;5034031;28;20033;-45
2022/01/27 00:07:39;;;;;;;136.02;43.17;;;;;;;2.97;100.00;102736.06;5042275;28;20032;-42
2022/01/27 00:12:49;;;;;;;135.50;40.78;;;;;;;2.96;100.00;102737.84;5054352;28;20522;-43
2022/01/27 00:15:16;;;;;;;134.00;39.50;;;;;;;2.98;100.00;102728.09;5058565;28;20020;-43
2022/01/27 00:17:55;;;;;;;128.65;39.95;;;;;;;2.98;100.00;102716.69;5064715;28;20031;-43
2022/01/27 00:20:20;;;;;;;140.30;42.05;;;;;;;2.99;100.00;102732.44;5057380;28;20074;-43
2022/01/27 00:22:45;;;;;;;145.90;47.22;;;;;;;2.99;100.00;102740.38;5065148;28;20035;-45
2022/01/27 00:25:11;;;;;;;139.07;41.95;;;;;;;2.97;100.00;102734.31;5061377;28;20131;-44
2022/01/27 00:27:36;;;;;;;142.57;40.55;;;;;;;2.99;100.00;102742.16;5050986;28;20135;-44
2022/01/27 00:30:04;;;;;;;152.85;47.92;;;;;;;2.97;100.00;102731.66;5053195;28;20263;-46
2022/01/27 00:32:31;;;;;;;129.40;36.78;;;;;;;2.93;100.00;102730.06;5052669;28;20546;-43
2022/01/27 00:34:57;;;;;;;139.95;42.33;;;;;;;2.96;100.00;102731.72;5054055;28;20021;-44
2022/01/27 00:37:22;;;;;;;126.50;37.95;;;;;;;2.99;100.00;102716.63;5054778;28;20036;-43
2022/01/27 00:39:48;;;;;;;133.27;41.22;;;;;;;3.02;100.00;102712.13;5053349;28;20211;-44
2022/01/27 00:42:13;;;;;;;131.55;41.50;;;;;;;3.02;100.00;102707.72;5054345;28;20032;-42
2022/01/27 00:44:38;;;;;;;123.57;35.90;;;;;;;3.03;100.00;102712.06;5052752;28;20017;-44
2022/01/27 00:47:04;;;;;;;134.82;38.40;;;;;;;3.02;100.00;102714.75;5053309;28;20030;-43
2022/01/27 00:49:30;;;;;;;143.57;38.42;;;;;;;2.99;100.00;102727.19;5035793;28;20028;-44
2022/01/27 00:51:56;;;;;;;139.52;43.30;;;;;;;2.99;100.00;102713.13;5053922;28;20027;-45
2022/01/27 00:54:25;;;;;;;132.88;39.70;;;;;;;3.00;100.00;102712.19;5053124;28;20036;-44
2022/01/27 00:57:13;;;;;;;138.32;41.70;;;;;;;2.99;100.00;102718.41;5054737;28;20549;-43
2022/01/27 00:59:51;;;;;;;126.22;36.47;;;;;;;2.99;100.00;102705.22;5052507;28;20104;-43
2022/01/27 01:02:29;;;;;;;137.10;39.20;;;;;;;2.99;100.00;102699.94;5036480;28;20441;-44
2022/01/27 01:05:11;;;;;;;134.50;39.75;;;;;;;2.98;100.00;102699.06;5053866;28;20059;-44
2022/01/27 01:07:40;;;;;;;145.98;46.03;;;;;;;3.01;100.00;102694.59;5054356;28;20103;-43
2022/01/27 01:15:31;;;;;;;134.88;40.10;;;;;;;3.05;100.00;102685.59;5056763;28;20056;-44
2022/01/27 01:18:21;;;;;;;146.98;41.67;;;;;;;3.05;100.00;102685.59;5056818;28;20028;-45
2022/01/27 01:34:23;;;;;;;134.88;37.90;;;;;;;3.06;100.00;102663.56;5057389;28;20251;-44
2022/01/27 01:37:05;;;;;;;145.32;43.88;;;;;;;3.07;100.00;102637.13;5057872;28;20447;-44
2022/01/27 01:39:33;;;;;;;144.95;42.33;;;;;;;3.09;100.00;102648.44;5055853;28;20213;-42
2022/01/27 01:42:01;;;;;;;148.20;42.53;;;;;;;3.10;100.00;102641.38;5057514;28;20824;-44
2022/01/27 01:44:27;;;;;;;133.15;37.90;;;;;;;3.13;100.00;102644.75;5055768;28;20032;-43
2022/01/27 01:46:53;;;;;;;139.82;43.17;;;;;;;3.14;100.00;102653.50;5056727;28;20071;-43
2022/01/27 01:49:19;;;;;;;136.07;37.30;;;;;;;3.16;100.00;102655.16;5056306;28;20028;-43
2022/01/27 01:51:45;;;;;;;122.22;37.10;;;;;;;3.18;100.00;102653.31;5038606;28;20036;-44
2022/01/27 01:54:12;;;;;;;124.72;40.47;;;;;;;3.20;100.00;102650.59;5056670;28;20482;-43
2022/01/27 01:56:39;;;;;;;129.57;38.33;;;;;;;3.19;100.00;102633.03;5056713;28;20341;-43
2022/01/27 01:59:08;;;;;;;138.13;40.90;;;;;;;3.22;100.00;102630.25;5055874;28;20036;-45
2022/01/27 02:01:34;;;;;;;127.80;40.30;;;;;;;3.23;100.00;102625.84;5038565;28;20063;-43
2022/01/27 02:04:05;;;;;;;143.85;42.30;;;;;;;3.27;100.00;102620.34;5056350;28;20036;-45
2022/01/27 02:06:36;;;;;;;132.30;40.28;;;;;;;3.27;100.00;102606.31;5056645;28;20337;-44
2022/01/27 02:20:12;;;;;;;133.85;37.47;;;;;;;3.26;100.00;102618.66;5057097;28;20091;-44
2022/01/27 02:22:39;;;;;;;138.10;40.95;;;;;;;3.28;100.00;102608.03;5057047;28;20028;-44
2022/01/27 02:25:06;;;;;;;131.18;38.85;;;;;;;3.29;100.00;102609.72;5056161;28;20101;-46
2022/01/27 02:27:31;;;;;;;145.68;41.42;;;;;;;3.25;100.00;102605.53;5056204;28;20036;-46
2022/01/27 02:29:56;;;;;;;146.40;41.55;;;;;;;3.24;100.00;102601.16;5054965;28;20441;-43
2022/01/27 02:32:22;;;;;;;132.30;37.38;;;;;;;3.29;100.00;102604.44;5054939;28;20059;-45
2022/01/27 02:34:48;;;;;;;133.30;37.25;;;;;;;3.29;100.00;102607.97;5056245;28;20108;-45
2022/01/27 02:37:14;;;;;;;141.48;41.65;;;;;;;3.30;100.00;102587.69;5056413;28;20472;-44
2022/01/27 02:39:40;;;;;;;135.05;40.65;;;;;;;3.31;100.00;102594.66;5056557;28;20024;-43
2022/01/27 02:42:11;;;;;;;134.93;37.55;;;;;;;3.24;100.00;102586.19;5056067;28;20638;-46
2022/01/27 02:44:45;;;;;;;146.18;40.70;;;;;;;3.28;100.00;102584.25;5053998;28;20566;-45
2022/01/27 02:47:12;;;;;;;136.38;37.35;;;;;;;3.27;100.00;102583.38;5055184;28;20028;-46
2022/01/27 02:49:37;;;;;;;144.48;41.25;;;;;;;3.22;100.00;102569.53;5055302;28;20103;-44
2022/01/27 02:52:03;;;;;;;133.40;37.22;;;;;;;3.24;100.00;102558.91;5056224;28;20107;-43
2022/01/27 02:54:28;;;;;;;136.25;36.22;;;;;;;3.23;100.00;102542.22;5031253;28;20036;-44
2022/01/27 02:56:53;;;;;;;131.88;37.40;;;;;;;3.22;100.00;102551.06;5042302;28;20099;-44
2022/01/27 02:59:20;;;;;;;122.32;35.97;;;;;;;3.18;100.00;102552.13;5053988;28;20042;-47
2022/01/27 03:01:47;;;;;;;140.98;39.15;;;;;;;3.16;100.00;102564.56;5055200;28;20340;-44
2022/01/27 03:04:13;;;;;;;136.68;38.80;;;;;;;3.16;100.00;102557.47;5055321;28;20808;-45
2022/01/27 03:06:39;;;;;;;141.02;37.65;;;;;;;3.15;100.00;102560.19;5055813;28;20089;-43
2022/01/27 03:09:05;;;;;;;130.20;36.08;;;;;;;3.14;100.00;102555.81;5055355;28;20036;-45
2022/01/27 03:11:51;;;;;;;133.15;35.50;;;;;;;3.13;100.00;102547.06;5054434;28;20105;-44
2022/01/27 03:14:20;;;;;;;141.73;37.72;;;;;;;3.12;100.00;102537.44;5054597;28;20420;-44
2022/01/27 03:16:45;;;;;;;147.75;41.53;;;;;;;3.09;100.00;102545.50;5054500;28;20020;-44
2022/01/27 03:19:11;;;;;;;132.30;35.58;;;;;;;3.11;100.00;102538.34;5055523;28;20067;-46
2022/01/27 03:21:37;;;;;;;136.68;34.83;;;;;;;3.11;100.00;102542.78;5055103;28;20029;-45
2022/01/27 03:24:02;;;;;;;128.85;34.75;;;;;;;3.13;100.00;102540.94;5054248;28;20128;-43
2022/01/27 03:26:28;;;;;;;154.10;38.10;;;;;;;3.14;100.00;102535.59;5054383;28;20036;-45
2022/01/27 03:28:54;;;;;;;128.73;34.63;;;;;;;3.18;100.00;102538.94;5055159;28;20613;-44
2022/01/27 03:31:20;;;;;;;145.23;36.03;;;;;;;3.17;100.00;102518.72;5054870;28;20047;-46
2022/01/27 03:33:46;;;;;;;130.48;36.38;;;;;;;3.18;100.00;102523.09;5054846;28;20048;-42
2022/01/27 03:36:13;;;;;;;135.15;35.30;;;;;;;3.17;100.00;102527.53;5054153;28;20051;-46
2022/01/27 03:38:39;;;;;;;128.13;35.55;;;;;;;3.16;100.00;102531.09;5054075;28;20527;-43
2022/01/27 03:41:06;;;;;;;147.25;39.40;;;;;;;3.18;100.00;102529.22;5053932;28;20020;-43
2022/01/27 03:43:33;;;;;;;149.48;37.28;;;;;;;3.19;100.00;102535.34;5054514;28;20542;-44
2022/01/27 03:45:59;;;;;;;133.75;37.15;;;;;;;3.17;100.00;102530.16;5054596;28;20567;-45
2022/01/27 03:48:24;;;;;;;128.60;33.75;;;;;;;3.18;100.00;102521.31;5053982;28;20095;-45
2022/01/27 03:50:50;;;;;;;128.77;34.60;;;;;;;3.19;100.00;102527.44;5036966;28;20484;-47
2022/01/27 03:53:15;;;;;;;126.70;34.92;;;;;;;3.20;100.00;102512.47;5053188;28;20451;-44
2022/01/27 03:55:41;;;;;;;127.18;35.08;;;;;;;3.16;100.00;102493.28;5055276;28;20490;-44
2022/01/27 03:58:07;;;;;;;127.88;34.55;;;;;;;3.16;100.00;102493.28;5054805;28;20017;-43
2022/01/27 04:00:33;;;;;;;134.75;34.88;;;;;;;3.13;100.00;102481.06;5054473;28;20353;-43
2022/01/27 04:03:05;;;;;;;125.80;33.42;;;;;;;3.12;100.00;102482.00;5053718;28;20034;-45
2022/01/27 04:05:36;;;;;;;;;;;;;;;3.13;100.00;102488.13;5054815;28;20040;-45
2022/01/27 04:08:02;;;;;;;128.37;31.87;;;;;;;3.07;100.00;102485.78;5054413;28;19912;-47
2022/01/27 04:10:28;;;;;;;133.63;36.92;;;;;;;3.05;100.00;102492.91;5054780;28;20536;-47
2022/01/27 04:12:53;;;;;;;143.73;38.70;;;;;;;3.02;100.00;102479.84;5053587;28;20408;-43
2022/01/27 04:15:18;;;;;;;135.35;33.15;;;;;;;2.98;100.00;102468.59;5054405;28;20028;-46
2022/01/27 04:17:44;;;;;;;128.20;33.45;;;;;;;2.97;100.00;102459.81;5054521;28;20020;-44
2022/01/27 04:20:10;;;;;;;140.73;35.53;;;;;;;2.91;100.00;102459.25;5053187;28;20058;-44
2022/01/27 04:22:35;;;;;;;157.25;38.70;;;;;;;2.91;100.00;102459.25;5054287;28;20439;-46
2022/01/27 04:25:00;;;;;;;151.57;39.30;;;;;;;2.89;100.00;102466.38;5054768;28;20033;-46
2022/01/27 04:27:30;;;;;;;129.77;31.20;;;;;;;2.88;100.00;102446.19;5053147;28;20159;-44
2022/01/27 04:29:56;;;;;;;156.05;37.45;;;;;;;2.86;100.00;102434.84;5054681;28;20025;-44
2022/01/27 04:32:27;;;;;;;116.22;31.08;;;;;;;2.85;100.00;102436.66;5053351;28;20433;-44
2022/01/27 04:34:55;;;;;;;150.15;39.42;;;;;;;2.90;100.00;102446.97;5053890;28;20048;-45
2022/01/27 04:37:24;;;;;;;152.05;42.38;;;;;;;2.93;100.00;102446.84;5054733;28;20287;-45
2022/01/27 04:40:14;;;;;;;152.82;39.15;;;;;;;2.93;100.00;102455.59;5055329;28;20043;-43
2022/01/27 04:42:58;;;;;;;150.32;36.97;;;;;;;2.88;100.00;102446.19;5053501;28;20036;-44
2022/01/27 04:45:28;;;;;;;131.65;31.98;;;;;;;2.83;100.00;102446.41;5040334;28;20035;-43
2022/01/27 04:48:04;;;;;;;134.18;35.60;;;;;;;2.83;100.00;102435.00;5057240;28;20069;-45
2022/01/27 04:50:29;;;;;;;149.85;34.45;;;;;;;2.82;100.00;102442.06;5058635;28;20059;-44
2022/01/27 04:52:56;;;;;;;141.52;35.58;;;;;;;2.85;100.00;102434.00;5057231;28;20130;-43
2022/01/27 04:55:23;;;;;;;129.73;32.95;;;;;;;2.84;100.00;102432.28;5058434;28;20035;-45
2022/01/27 04:57:56;;;;;;;146.63;35.63;;;;;;;2.84;100.00;102434.94;5057505;28;20035;-47
2022/01/27 05:00:21;;;;;;;144.52;37.05;;;;;;;2.85;100.00;102427.84;5057956;28;20080;-44
2022/01/27 05:02:54;;;;;;;139.40;36.90;;;;;;;2.90;100.00;102418.81;5056865;28;20120;-44
2022/01/27 05:05:21;;;;;;;142.95;33.75;;;;;;;2.91;100.00;102427.59;5058472;28;20025;-43
2022/01/27 05:07:54;;;;;;;147.57;36.22;;;;;;;2.93;100.00;102405.47;5057736;28;20059;-43
2022/01/27 05:10:23;;;;;;;145.60;38.95;;;;;;;3.01;100.00;102413.03;5058892;28;20025;-43
2022/01/27 05:12:51;;;;;;;144.68;35.92;;;;;;;3.02;100.00;102406.81;5057794;28;20465;-47
2022/01/27 05:15:17;;;;;;;143.23;33.72;;;;;;;3.04;100.00;102412.00;5057679;28;20028;-44
2022/01/27 05:17:43;;;;;;;136.50;34.63;;;;;;;3.08;100.00;102403.03;5058013;28;20048;-46
2022/01/27 05:20:09;;;;;;;140.80;36.80;;;;;;;3.15;100.00;102397.34;5057474;28;20085;-45
2022/01/27 05:22:34;;;;;;;147.27;40.33;;;;;;;3.24;100.00;102392.56;5057420;28;20040;-42
2022/01/27 05:24:59;;;;;;;137.02;36.30;;;;;;;3.30;100.00;102382.56;5057638;28;20036;-43
2022/01/27 05:27:25;;;;;;;155.30;39.88;;;;;;;3.38;100.00;102381.31;5056971;28;20547;-44
2022/01/27 05:29:52;;;;;;;137.73;37.83;;;;;;;3.39;100.00;102369.84;5056348;28;20029;-47
2022/01/27 05:32:18;;;;;;;152.68;39.00;;;;;;;3.48;100.00;102377.28;5056218;28;20105;-45
2022/01/27 05:34:43;;;;;;;123.13;32.50;;;;;;;3.51;100.00;102385.06;5058351;28;20433;-48
2022/01/27 05:37:08;;;;;;;125.90;31.75;;;;;;;3.53;100.00;102383.19;5038785;28;20021;-44
2022/01/27 05:39:34;;;;;;;131.40;34.47;;;;;;;3.64;100.00;102351.81;5057637;28;20040;-46
2022/01/27 05:41:59;;;;;;;130.35;34.97;;;;;;;3.70;100.00;102371.75;5056211;28;20089;-44
2022/01/27 05:44:24;;;;;;;116.68;31.58;;;;;;;3.73;100.00;102376.91;5056714;28;20033;-44
2022/01/27 05:46:49;;;;;;;137.52;34.58;;;;;;;3.78;100.00;102369.59;5058596;28;20044;-48
2022/01/27 05:49:15;;;;;;;131.07;32.30;;;;;;;3.81;100.00;102376.50;5057677;28;20044;-43
2022/01/27 05:51:40;;;;;;;119.55;32.10;;;;;;;3.84;100.00;102386.94;5057075;28;20032;-45
2022/01/27 05:54:05;;;;;;;117.25;32.65;;;;;;;3.86;100.00;102380.63;5057921;28;20104;-43
2022/01/27 05:56:30;;;;;;;126.78;31.80;;;;;;;3.88;100.00;102389.31;5055706;28;20105;-43
2022/01/27 05:58:56;;;;;;;121.72;32.25;;;;;;;3.89;100.00;102376.97;5057129;28;20024;-46
2022/01/27 06:01:21;;;;;;;130.88;31.02;;;;;;;3.83;100.00;102364.91;5055388;28;20276;-42
2022/01/27 06:03:46;;;;;;;128.68;32.00;;;;;;;3.79;100.00;102351.97;5056725;28;20510;-45
2022/01/27 06:06:12;;;;;;;121.50;30.45;;;;;;;3.76;100.00;102366.16;5057261;28;20028;-44
2022/01/27 06:08:37;;;;;;;137.82;38.60;;;;;;;3.73;100.00;102363.69;5056608;28;20249;-43
2022/01/27 06:11:02;;;;;;;141.73;36.65;;;;;;;3.71;100.00;102361.13;5056154;28;20111;-45
2022/01/27 06:13:28;;;;;;;123.00;32.55;;;;;;;3.67;100.00;102361.38;5056980;28;20489;-47
2022/01/27 06:15:53;;;;;;;117.68;32.17;;;;;;;3.63;100.00;102349.25;5056426;28;20047;-46
2022/01/27 06:18:19;;;;;;;139.73;36.80;;;;;;;3.61;100.00;102351.97;5055083;28;20020;-45
2022/01/27 06:20:45;;;;;;;137.50;33.60;;;;;;;3.56;100.00;102356.63;5056050;28;20052;-44
2022/01/27 06:23:11;;;;;;;144.63;36.10;;;;;;;3.56;100.00;102353.97;5056780;28;20473;-46
2022/01/27 06:25:37;;;;;;;144.85;36.50;;;;;;;3.57;100.00;102355.69;5058140;28;20526;-45
2022/01/27 06:28:02;;;;;;;132.13;33.25;;;;;;;3.61;100.00;102351.13;5075870;28;20051;-44
2022/01/27 06:30:28;;;;;;;159.07;35.75;;;;;;;3.63;100.00;102343.94;5061198;28;20100;-43
2022/01/27 06:32:53;;;;;;;131.55;31.27;;;;;;;3.67;100.00;102337.59;5054304;28;20082;-44
2022/01/27 06:35:18;;;;;;;141.63;34.88;;;;;;;3.69;100.00;102331.28;5055909;28;20021;-44
2022/01/27 06:37:45;;;;;;;161.73;43.08;;;;;;;3.69;100.00;102331.28;5056178;28;20415;-45
2022/01/27 06:40:12;;;;;;;136.77;31.27;;;;;;;3.73;100.00;102324.03;5056860;28;20040;-43
2022/01/27 06:42:38;;;;;;;158.02;38.92;;;;;;;3.74;100.00;102328.41;5055170;28;20028;-47
2022/01/27 06:45:06;;;;;;;141.95;35.28;;;;;;;3.80;100.00;102324.59;5056402;28;20127;-43
2022/01/27 06:47:32;;;;;;;142.13;34.88;;;;;;;3.80;100.00;102330.75;5054013;28;20036;-48
2022/01/27 06:49:57;;;;;;;141.20;35.05;;;;;;;3.80;100.00;102327.22;5055999;28;20420;-43
2022/01/27 06:52:26;;;;;;;143.30;35.03;;;;;;;3.79;100.00;102322.91;5055598;28;20048;-43
2022/01/27 06:54:52;;;;;;;135.70;32.05;;;;;;;3.81;100.00;102323.66;5056663;28;20035;-46
2022/01/27 06:57:17;;;;;;;146.85;34.25;;;;;;;3.84;100.00;102323.50;5054906;28;20298;-45
2022/01/27 06:59:42;;;;;;;133.13;32.05;;;;;;;3.84;100.00;102327.00;5056755;28;20407;-46
2022/01/27 07:02:08;;;;;;;135.02;31.95;;;;;;;3.82;100.00;102318.28;5054360;28;20032;-44
2022/01/27 07:04:33;;;;;;;152.65;37.38;;;;;;;3.85;100.00;102319.91;5055013;28;20484;-46
2022/01/27 07:06:58;;;;;;;160.00;37.70;;;;;;;3.86;100.00;102324.28;5055490;28;20139;-43
2022/01/27 07:09:24;;;;;;;130.32;32.28;;;;;;;3.87;100.00;102324.19;5054758;28;20465;-42
2022/01/27 07:11:49;;;;;;;151.45;35.53;;;;;;;3.87;100.00;102325.97;5054980;28;20029;-41
2022/01/27 07:14:14;;;;;;;152.82;35.78;;;;;;;3.89;100.00;102314.38;5055426;28;20058;-44
2022/01/27 07:16:39;;;;;;;155.70;38.75;;;;;;;3.93;100.00;102323.84;5055040;28;20032;-45
2022/01/27 07:19:05;;;;;;;147.90;38.13;;;;;;;3.94;100.00;102343.22;5055456;28;20016;-42
2022/01/27 07:21:30;;;;;;;144.82;38.05;;;;;;;3.98;100.00;102336.00;5035650;28;20607;-43
2022/01/27 07:23:55;;;;;;;155.73;36.63;;;;;;;3.98;100.00;102336.84;5054740;28;20041;-45
2022/01/27 07:26:25;;;;;;;145.45;35.50;;;;;;;4.00;100.00;102342.03;5053351;28;20476;-46
2022/01/27 07:28:54;;;;;;;155.95;39.05;;;;;;;3.99;100.00;102349.13;5054713;28;20032;-44
2022/01/27 07:31:20;;;;;;;151.55;34.58;;;;;;;4.02;100.00;102351.63;5050636;28;20021;-44
2022/01/27 07:33:48;;;;;;;144.73;38.33;;;;;;;4.03;100.00;102353.31;5053639;28;20490;-44
2022/01/27 07:36:17;;;;;;;146.65;33.75;;;;;;;4.05;100.00;102348.78;5055349;28;20036;-45
2022/01/27 07:38:43;;;;;;;155.02;36.22;;;;;;;4.06;100.00;102342.56;5055839;28;20243;-44
2022/01/27 07:41:12;;;;;;;161.88;42.97;;;;;;;4.04;100.00;102340.94;5053417;28;20145;-44
2022/01/27 07:43:37;;;;;;;156.43;38.35;;;;;;;4.01;100.00;102341.97;5054739;28;20025;-47
2022/01/27 07:46:03;;;;;;;160.95;37.83;;;;;;;3.94;100.00;102340.59;5064300;28;20024;-44
2022/01/27 07:48:29;;;;;;;166.25;40.95;;;;;;;3.89;100.00;102338.19;5062702;28;20012;-44
2022/01/27 07:50:54;;;;;;;168.32;39.45;;;;;;;3.82;100.00;102355.31;5065167;28;20469;-46
2022/01/27 07:53:21;;;;;;;182.77;40.20;;;;;;;3.78;100.00;102353.72;5064993;28;20092;-44
2022/01/27 07:55:46;;;;;;;217.27;49.33;;;;;;;3.79;100.00;102354.59;5063699;28;20464;-47
2022/01/27 07:58:12;;;;;;;185.63;40.67;;;;;;;3.77;100.00;102349.41;5063386;28;20343;-44
2022/01/27 08:00:38;;;;;;;190.48;41.63;;;;;;;3.79;100.00;102339.59;5065349;28;20456;-45
2022/01/27 08:03:04;;;;;;;189.10;40.95;;;;;;;3.77;100.00;102336.19;5064026;28;20557;-44
2022/01/27 08:05:29;;;;;;;220.15;49.35;;;;;;;3.78;100.00;102347.59;5063169;28;20073;-42
2022/01/27 08:07:54;;;;;;;215.43;47.08;;;;;;;3.76;100.00;102345.03;5065202;28;20420;-44
2022/01/27 08:10:20;;;;;;;193.43;41.90;;;;;;;3.76;100.00;102344.19;5065023;28;20336;-42
2022/01/27 08:12:45;;;;;;;214.20;44.83;;;;;;;3.79;100.00;102342.25;5059854;28;20100;-45
2022/01/27 08:15:13;;;;;;;196.45;40.17;;;;;;;3.77;100.00;102343.25;5065129;28;20058;-43
2022/01/27 08:17:39;;;;;;;202.93;43.58;;;;;;;3.78;100.00;102356.38;5062985;28;20036;-44
2022/01/27 08:20:05;;;;;;;214.82;45.88;;;;;;;3.76;100.00;102347.69;5063027;28;20389;-47
2022/01/27 08:22:32;;;;;;;223.18;44.92;;;;;;;3.78;100.00;102345.81;5063801;28;20083;-41
2022/01/27 08:24:57;;;;;;;217.07;44.47;;;;;;;3.77;100.00;102333.53;5064437;28;20013;-43
2022/01/27 08:27:27;;;;;;;236.70;48.67;;;;;;;3.81;100.00;102340.38;5062287;28;20078;-45
2022/01/27 08:29:57;;;;;;;210.57;45.08;;;;;;;3.81;100.00;102336.88;5062209;28;20484;-43
2022/01/27 08:32:32;;;;;;;215.65;46.50;;;;;;;3.83;100.00;102333.19;5064232;28;20107;-43
2022/01/27 08:34:58;;;;;;;184.60;41.08;;;;;;;3.87;100.00;102339.19;5064763;28;20013;-46
2022/01/27 08:37:23;;;;;;;206.20;44.58;;;;;;;3.87;100.00;102339.19;5062369;28;20013;-44
2022/01/27 08:39:48;;;;;;;232.73;50.35;;;;;;;3.92;100.00;102342.44;5064681;28;20035;-44
2022/01/27 08:42:15;;;;;;;213.98;48.28;;;;;;;3.93;100.00;102338.88;5063204;28;20648;-43
2022/01/27 08:44:41;;;;;;;203.60;45.13;;;;;;;3.93;100.00;102344.16;5065185;28;20469;-43
2022/01/27 08:47:07;;;;;;;208.90;45.67;;;;;;;3.96;100.00;102337.88;5063570;28;20319;-43
2022/01/27 08:49:34;;;;;;;255.80;60.00;;;;;;;3.98;100.00;102338.63;5059110;28;20125;-44
2022/01/27 08:51:59;;;;;;;229.38;48.03;;;;;;;4.03;100.00;102344.53;5060156;28;20024;-44
2022/01/27 08:54:26;;;;;;;195.35;44.85;;;;;;;4.08;100.00;102345.97;5063417;28;20012;-43
2022/01/27 08:56:51;;;;;;;203.02;46.88;;;;;;;4.10;100.00;102337.97;5063365;28;20409;-43
2022/01/27 08:59:16;;;;;;;184.38;44.17;;;;;;;4.13;100.00;102340.47;5064100;28;20027;-45
2022/01/27 09:01:43;;;;;;;203.43;47.55;;;;;;;4.11;100.00;102337.88;5061896;28;20032;-46
2022/01/27 09:04:08;;;;;;;202.88;46.15;;;;;;;4.17;100.00;102333.22;5063859;28;20389;-46
2022/01/27 09:06:34;;;;;;;182.23;43.97;;;;;;;4.21;100.00;102335.63;5064000;28;20305;-44
2022/01/27 09:09:00;;;;;;;196.50;44.40;;;;;;;4.25;100.00;102338.94;5047122;28;20039;-43
2022/01/27 09:11:31;;;;;;;190.30;43.92;;;;;;;4.28;100.00;102344.06;5060201;28;20090;-45
2022/01/27 09:13:57;;;;;;;165.48;40.33;;;;;;;4.30;100.00;102340.38;5064059;28;20120;-45
2022/01/27 09:16:26;;;;;;;162.82;41.33;;;;;;;4.33;100.00;102333.22;5063665;28;20111;-44
2022/01/27 09:18:51;;;;;;;145.65;37.80;;;;;;;4.36;100.00;102331.28;5059913;28;20131;-47
2022/01/27 09:21:22;;;;;;;185.85;44.85;;;;;;;4.42;100.00;102338.88;5064078;28;20041;-43
2022/01/27 09:23:48;;;;;;;166.10;40.53;;;;;;;4.44;100.00;102336.97;5063497;28;20460;-45
2022/01/27 09:26:38;;;;;;;159.93;41.33;;;;;;;4.46;100.00;102323.69;5063192;28;20637;-44
2022/01/27 09:28:58;;;;;;;144.35;39.15;;;;;;;4.49;100.00;102324.34;5059315;28;20406;-46
2022/01/27 09:31:24;;;;;;;162.63;42.85;;;;;;;4.52;100.00;102331.28;5062536;28;20021;-46
2022/01/27 09:33:49;;;;;;;130.75;36.22;;;;;;;4.56;100.00;102326.66;5064231;28;20021;-46
2022/01/27 09:36:14;;;;;;;132.73;35.97;;;;;;;4.61;100.00;102332.56;5065315;28;20013;-46
2022/01/27 09:38:39;;;;;;;123.03;35.80;;;;;;;4.63;100.00;102330.69;5066708;28;20372;-46
2022/01/27 09:41:07;;;;;;;120.78;33.53;;;;;;;4.69;100.00;102329.50;5064689;28;20039;-45
2022/01/27 09:43:34;;;;;;;134.38;38.28;;;;;;;4.72;100.00;102337.25;5068490;28;20103;-46
2022/01/27 09:46:04;;;;;;;117.35;34.30;;;;;;;4.75;100.00;102340.59;5064925;28;20036;-46
2022/01/27 09:48:36;;;;;;;96.47;30.05;;;;;;;4.79;100.00;102335.97;5060742;28;20070;-45
2022/01/27 09:51:25;;;;;;;102.72;35.15;;;;;;;4.84;100.00;102336.56;5049144;28;20173;-43
2022/01/27 09:53:52;;;;;;;93.25;28.65;;;;;;;4.86;100.00;102340.81;5057608;28;20032;-46
2022/01/27 09:56:19;;;;;;;101.45;32.35;;;;;;;4.87;100.00;102344.31;5056575;28;20550;-43
2022/01/27 09:58:44;;;;;;;94.65;28.58;;;;;;;4.88;100.00;102351.31;5057235;28;20020;-46
2022/01/27 10:01:09;;;;;;;73.50;24.23;;;;;;;4.94;100.00;102347.47;5055804;28;20044;-46
2022/01/27 10:04:01;;;;;;;83.88;28.70;;;;;;;4.95;100.00;102341.25;5058040;28;20116;-44
2022/01/27 10:06:31;;;;;;;86.15;31.73;;;;;;;4.97;100.00;102342.88;5062572;28;20097;-44
2022/01/27 10:09:22;;;;;;;70.37;25.43;;;;;;;5.01;100.00;102338.25;5068491;28;20028;-44
2022/01/27 10:11:49;;;;;;;68.82;24.65;;;;;;;5.04;100.00;102343.34;5063898;28;20027;-45
2022/01/27 10:14:23;;;;;;;63.33;20.88;;;;;;;5.07;100.00;102342.34;5067616;28;20569;-45
2022/01/27 10:16:53;;;;;;;63.88;22.70;;;;;;;5.08;100.00;102346.72;5065693;28;20465;-44
2022/01/27 10:19:19;;;;;;;65.80;23.10;;;;;;;5.11;100.00;102344.72;5066221;28;20490;-43
2022/01/27 10:21:44;;;;;;;57.17;22.42;;;;;;;5.09;100.00;102330.72;5065527;28;20027;-43
2022/01/27 10:24:28;;;;;;;46.72;17.88;;;;;;;5.14;100.00;102338.38;5062668;28;20028;-44
2022/01/27 10:27:27;;;;;;;48.58;21.10;;;;;;;5.14;100.00;102339.25;5055536;28;20031;-44
2022/01/27 10:32:36;;;;;;;39.17;16.07;;;;;;;5.17;100.00;102344.34;5056534;28;20511;-44
2022/01/27 10:35:04;;;;;;;42.88;16.38;;;;;;;5.20;100.00;102353.94;5055886;28;20278;-46
2022/01/27 10:38:01;;;;;;;35.78;15.07;;;;;;;5.23;100.00;102351.13;5056021;28;20362;-44
2022/01/27 10:40:32;;;;;;;37.95;15.32;;;;;;;5.25;100.00;102349.22;5072461;28;20304;-44
2022/01/27 10:43:06;;;;;;;40.08;16.45;;;;;;;5.29;100.00;102350.75;5072466;28;20085;-45
2022/01/27 10:45:31;;;;;;;37.78;17.80;;;;;;;5.33;100.00;102346.13;5076111;28;20028;-44
2022/01/27 10:48:16;;;;;;;34.20;16.20;;;;;;;5.35;100.00;102347.75;5076932;28;20353;-45
2022/01/27 10:51:02;;;;;;;41.75;16.98;;;;;;;5.38;100.00;102347.56;5071983;28;20123;-47
2022/01/27 10:53:54;;;;;;;37.25;15.88;;;;;;;5.40;100.00;102350.97;5064030;28;20028;-43
2022/01/27 10:56:23;;;;;;;43.40;15.80;;;;;;;5.44;100.00;102362.25;5061738;28;20105;-44
2022/01/27 10:58:49;;;;;;;36.83;15.52;;;;;;;5.46;100.00;102346.25;5062414;28;20048;-45
2022/01/27 11:01:26;;;;;;;35.75;15.40;;;;;;;5.48;100.00;102347.00;5060991;28;20047;-45
2022/01/27 11:03:53;;;;;;;35.95;15.55;;;;;;;5.51;100.00;102346.84;5061072;28;20489;-45
2022/01/27 11:06:20;;;;;;;30.48;14.88;;;;;;;5.51;100.00;102344.19;5064218;28;20351;-43
2022/01/27 11:08:46;;;;;;;39.30;15.43;;;;;;;5.56;100.00;102340.31;5064924;28;20031;-45
2022/01/27 11:11:13;;;;;;;29.13;13.98;;;;;;;5.59;100.00;102342.78;5064409;28;20035;-45
2022/01/27 11:13:39;;;;;;;36.20;15.50;;;;;;;5.63;100.00;102337.31;5062710;28;20025;-48
2022/01/27 11:16:05;;;;;;;36.78;16.02;;;;;;;5.66;100.00;102337.97;5065282;28;20054;-44
2022/01/27 11:18:31;;;;;;;47.30;18.33;;;;;;;5.68;100.00;102338.72;5065125;28;20020;-45
2022/01/27 11:21:12;;;;;;;37.25;16.33;;;;;;;5.71;100.00;102330.59;5064285;28;20404;-45
2022/01/27 11:26:09;;;;;;;45.05;15.15;;;;;;;5.76;100.00;102306.47;5058350;28;20228;-45
2022/01/27 11:28:35;;;;;;;42.55;17.58;;;;;;;5.78;100.00;102313.34;5066012;28;20012;-43
2022/01/27 11:31:39;;;;;;;44.50;18.90;;;;;;;5.81;100.00;102307.03;5054831;28;20488;-45
2022/01/27 11:34:07;;;;;;;46.03;19.92;;;;;;;5.85;100.00;102307.69;5056296;28;20036;-46
2022/01/27 11:36:33;;;;;;;42.45;19.50;;;;;;;5.87;100.00;102300.50;5059545;28;20074;-47
2022/01/27 11:39:00;;;;;;;39.47;14.55;;;;;;;5.89;100.00;102304.78;5063302;28;20021;-45
2022/01/27 11:41:40;;;;;;;38.08;17.23;;;;;;;5.90;100.00;102310.91;5064858;28;20024;-47
2022/01/27 11:44:24;;;;;;;45.50;18.70;;;;;;;5.93;100.00;102298.31;5054293;28;20156;-46
2022/01/27 11:47:13;;;;;;;40.30;17.63;;;;;;;5.96;100.00;102295.50;5052698;28;20034;-48
2022/01/27 11:49:46;;;;;;;45.35;19.02;;;;;;;5.96;100.00;102295.50;5055720;28;20173;-46